Time;durP1;ratioP1;P1;durP2;ratioP2;P2;SDS_P1;SDS_P2;PMS_P1;PMS_P2;Temp;Humidity;BMP_temperature;BMP_pressure;BME280_temperature;BME280_humidity;BME280_pressure;Samples;Min_cycle;Max_cycle;Signal;HPM_P1;HPM_P2
2024/01/29 00:02:01;;;;;;;5.20;2.67;;;3.80;99.90;;;;;;6142964;23;20018;-86
2024/01/29 00:04:27;;;;;;;6.47;3.40;;;4.30;99.90;;;;;;6142892;23;20441;-86
2024/01/29 00:06:54;;;;;;;6.47;3.28;;;4.10;99.90;;;;;;6142798;23;20014;-86
2024/01/29 00:09:21;;;;;;;6.80;3.22;;;3.70;99.90;;;;;;6142760;23;20088;-86
2024/01/29 00:11:48;;;;;;;7.10;3.28;;;3.70;99.90;;;;;;6143021;23;20092;-86
2024/01/29 00:14:15;;;;;;;6.40;2.80;;;3.70;99.90;;;;;;6167182;23;20093;-87
2024/01/29 00:16:41;;;;;;;8.38;3.30;;;4.50;99.90;;;;;;6167307;23;20013;-86
2024/01/29 00:19:08;;;;;;;7.00;3.20;;;3.60;99.90;;;;;;6142817;23;20014;-86
2024/01/29 00:21:35;;;;;;;7.38;3.40;;;3.60;99.90;;;;;;6167121;23;20492;-86
2024/01/29 00:24:02;;;;;;;5.82;3.00;;;3.50;99.90;;;;;;6142767;23;20022;-86
2024/01/29 00:26:28;;;;;;;6.03;3.25;;;3.50;99.90;;;;;;6142577;23;20014;-86
2024/01/29 00:28:55;;;;;;;6.72;3.35;;;3.50;99.90;;;;;;6142536;23;20070;-86
2024/01/29 00:31:23;;;;;;;6.45;3.50;;;4.00;99.90;;;;;;6142413;23;20029;-86
2024/01/29 00:33:52;;;;;;;7.80;3.40;;;3.40;99.90;;;;;;6166836;23;20029;-86
2024/01/29 00:36:19;;;;;;;8.15;3.80;;;3.40;99.90;;;;;;6142553;23;20014;-86
2024/01/29 00:38:45;;;;;;;6.25;3.35;;;3.40;99.90;;;;;;6167118;23;20006;-86
2024/01/29 00:41:12;;;;;;;6.60;3.30;;;3.40;99.90;;;;;;6142551;23;20018;-86
2024/01/29 00:43:38;;;;;;;6.43;3.03;;;3.30;99.90;;;;;;6142545;23;20014;-86
2024/01/29 00:46:05;;;;;;;8.93;3.00;;;3.30;99.90;;;;;;6142454;23;20063;-85
2024/01/29 00:48:32;;;;;;;8.52;3.40;;;3.30;99.90;;;;;;6142706;23;20445;-86
2024/01/29 00:51:01;;;;;;;6.95;3.40;;;3.30;99.90;;;;;;6142162;23;20006;-86
2024/01/29 00:53:27;;;;;;;7.07;3.28;;;3.30;99.90;;;;;;6166853;23;20025;-86
2024/01/29 00:55:54;;;;;;;7.35;3.53;;;3.30;99.90;;;;;;6142408;23;20014;-86
2024/01/29 00:58:21;;;;;;;6.68;3.03;;;3.20;99.90;;;;;;6166685;23;20523;-87
2024/01/29 01:00:50;;;;;;;7.88;3.25;;;4.20;99.90;;;;;;6142482;23;20010;-86
2024/01/29 01:03:17;;;;;;;6.85;3.13;;;3.20;99.90;;;;;;6142185;23;20088;-86
2024/01/29 01:05:43;;;;;;;7.38;3.42;;;3.10;99.90;;;;;;6142515;23;20052;-86
2024/01/29 01:08:10;;;;;;;6.80;3.33;;;3.10;99.90;;;;;;6166893;23;20080;-87
2024/01/29 01:10:36;;;;;;;6.85;3.53;;;3.10;99.90;;;;;;6166707;23;20045;-86
2024/01/29 01:13:03;;;;;;;8.38;3.60;;;3.10;99.90;;;;;;6142313;23;20018;-86
2024/01/29 01:15:30;;;;;;;5.80;3.13;;;3.10;99.90;;;;;;6166804;23;20010;-86
2024/01/29 01:17:56;;;;;;;6.80;3.50;;;3.00;99.90;;;;;;6142191;23;20018;-86
2024/01/29 01:20:24;;;;;;;7.78;3.42;;;3.00;99.90;;;;;;6142427;23;20357;-86
2024/01/29 01:22:51;;;;;;;5.93;3.28;;;4.20;99.90;;;;;;6142466;23;20014;-86
2024/01/29 01:25:17;;;;;;;6.78;3.20;;;3.00;99.90;;;;;;6142203;23;20017;-86
2024/01/29 01:27:44;;;;;;;7.20;3.30;;;2.90;99.90;;;;;;6142354;23;20084;-86
2024/01/29 01:30:11;;;;;;;6.78;3.60;;;4.00;99.90;;;;;;6142232;23;20017;-86
2024/01/29 01:32:37;;;;;;;6.07;3.20;;;2.90;99.90;;;;;;6142364;23;20011;-86
2024/01/29 01:35:04;;;;;;;9.00;3.17;;;2.90;99.90;;;;;;6142220;23;20006;-86
2024/01/29 01:37:31;;;;;;;7.65;3.45;;;2.90;99.90;;;;;;6166805;23;20006;-86
2024/01/29 01:39:58;;;;;;;6.05;3.25;;;2.90;99.90;;;;;;6142287;23;20021;-85
2024/01/29 01:42:25;;;;;;;7.10;3.40;;;2.80;99.90;;;;;;6166522;23;20341;-86
2024/01/29 01:44:52;;;;;;;6.70;3.30;;;3.40;99.90;;;;;;6142089;23;20026;-86
2024/01/29 01:47:19;;;;;;;6.40;3.53;;;3.90;99.90;;;;;;6141847;23;20056;-86
2024/01/29 01:49:46;;;;;;;5.93;3.22;;;3.90;99.90;;;;;;6141864;23;20014;-86
2024/01/29 01:52:15;;;;;;;8.63;3.58;;;2.70;99.90;;;;;;6166585;23;20010;-86
2024/01/29 01:54:42;;;;;;;7.65;3.55;;;2.60;99.90;;;;;;6142459;23;20088;-86
2024/01/29 01:57:10;;;;;;;6.75;3.63;;;2.60;99.90;;;;;;6142088;23;20061;-86
2024/01/29 01:59:39;;;;;;;6.97;3.38;;;2.60;99.90;;;;;;6142238;23;20006;-86
2024/01/29 02:02:07;;;;;;;6.38;3.40;;;2.50;99.90;;;;;;6142095;23;20045;-86
2024/01/29 02:04:34;;;;;;;6.80;3.80;;;2.60;99.90;;;;;;6167345;23;20018;-86
2024/01/29 02:07:01;;;;;;;7.30;3.40;;;2.50;99.90;;;;;;6143938;23;20155;-86
2024/01/29 02:09:28;;;;;;;5.47;3.28;;;2.40;99.90;;;;;;6143931;23;20133;-86
2024/01/29 02:11:54;;;;;;;6.82;3.50;;;2.40;99.90;;;;;;6144014;23;20691;-86
2024/01/29 02:14:21;;;;;;;6.43;3.58;;;2.30;99.90;;;;;;6143803;23;20021;-86
2024/01/29 02:16:48;;;;;;;6.22;3.08;;;2.30;99.90;;;;;;6144139;23;20472;-86
2024/01/29 02:19:17;;;;;;;7.93;3.45;;;2.30;99.90;;;;;;6143364;23;20014;-86
2024/01/29 02:21:44;;;;;;;6.68;3.13;;;2.20;99.90;;;;;;6143909;23;20021;-86
2024/01/29 02:24:11;;;;;;;7.60;3.45;;;2.90;99.90;;;;;;6143847;23;20441;-86
2024/01/29 02:26:38;;;;;;;8.55;4.00;;;2.20;99.90;;;;;;6143809;23;20170;-86
2024/01/29 02:29:04;;;;;;;7.90;3.55;;;2.20;99.90;;;;;;6143889;23;20017;-86
2024/01/29 02:31:31;;;;;;;7.63;3.67;;;2.20;99.90;;;;;;6143861;23;20014;-86
2024/01/29 02:33:58;;;;;;;8.35;3.78;;;2.20;99.90;;;;;;6143701;23;20045;-86
2024/01/29 02:36:24;;;;;;;13.70;3.65;;;2.20;99.90;;;;;;6143743;23;20006;-86
2024/01/29 02:38:51;;;;;;;8.15;3.17;;;2.20;99.90;;;;;;6143809;23;20072;-86
2024/01/29 02:41:17;;;;;;;6.80;3.38;;;2.20;99.90;;;;;;6143741;23;20014;-86
2024/01/29 02:43:44;;;;;;;6.88;3.50;;;2.10;99.90;;;;;;6143797;23;20345;-85
2024/01/29 02:46:11;;;;;;;7.38;3.55;;;2.10;99.90;;;;;;6143683;23;20021;-86
2024/01/29 02:48:38;;;;;;;8.70;3.53;;;2.10;99.90;;;;;;6168035;23;20093;-86
2024/01/29 02:51:06;;;;;;;6.30;3.55;;;2.80;99.90;;;;;;6143711;23;20096;-86
2024/01/29 02:53:32;;;;;;;8.68;3.47;;;2.10;99.90;;;;;;6143421;23;20014;-86
2024/01/29 02:55:59;;;;;;;6.22;3.20;;;2.10;99.90;;;;;;6143570;23;20073;-86
2024/01/29 02:58:26;;;;;;;9.05;3.45;;;2.10;99.90;;;;;;6168025;23;20014;-86
2024/01/29 03:00:52;;;;;;;6.22;3.45;;;2.00;99.90;;;;;;6143480;23;20453;-86
2024/01/29 03:03:19;;;;;;;6.15;3.70;;;2.00;99.90;;;;;;6143447;23;20353;-86
2024/01/29 03:05:45;;;;;;;7.40;3.65;;;2.00;99.90;;;;;;6167796;23;20018;-86
2024/01/29 03:08:12;;;;;;;6.03;3.42;;;1.90;99.90;;;;;;6143530;23;20014;-86
2024/01/29 03:10:39;;;;;;;6.95;3.60;;;1.90;99.90;;;;;;6143400;23;20014;-86
2024/01/29 03:13:05;;;;;;;6.88;3.28;;;1.90;99.90;;;;;;6167589;23;20017;-86
2024/01/29 03:15:32;;;;;;;6.88;3.50;;;1.90;99.90;;;;;;6167425;23;20038;-87
2024/01/29 03:17:59;;;;;;;7.22;3.40;;;2.10;99.90;;;;;;6143218;23;20022;-86
2024/01/29 03:20:27;;;;;;;7.78;3.83;;;1.80;99.90;;;;;;6143385;23;20022;-86
2024/01/29 03:22:53;;;;;;;6.32;3.45;;;2.20;99.90;;;;;;6143193;23;20445;-86
2024/01/29 03:25:20;;;;;;;6.72;3.33;;;1.80;99.90;;;;;;6143370;23;20014;-86
2024/01/29 03:27:46;;;;;;;6.20;3.60;;;1.80;99.90;;;;;;6143186;23;20056;-86
2024/01/29 03:30:13;;;;;;;7.22;3.38;;;1.80;99.90;;;;;;6143437;23;20341;-86
2024/01/29 03:32:40;;;;;;;6.93;3.20;;;1.80;99.90;;;;;;6143113;23;20044;-86
2024/01/29 03:35:08;;;;;;;13.18;3.50;;;2.90;99.90;;;;;;6143782;23;20014;-86
2024/01/29 03:37:34;;;;;;;6.93;3.30;;;1.80;99.90;;;;;;6143099;23;20010;-86
2024/01/29 03:40:04;;;;;;;6.80;3.58;;;1.80;99.90;;;;;;6143053;23;20042;-86
2024/01/29 03:42:31;;;;;;;9.13;3.45;;;1.80;99.90;;;;;;6143019;23;20017;-85
2024/01/29 03:44:57;;;;;;;7.53;3.33;;;1.70;99.90;;;;;;6143300;23;20010;-86
2024/01/29 03:47:24;;;;;;;6.93;3.15;;;1.70;99.90;;;;;;6142742;23;20018;-86
2024/01/29 03:49:51;;;;;;;8.98;3.63;;;1.70;99.90;;;;;;6142763;23;20353;-86
2024/01/29 03:52:17;;;;;;;9.88;3.50;;;2.60;99.90;;;;;;6143010;23;20074;-86
2024/01/29 03:54:44;;;;;;;8.10;3.10;;;1.60;99.90;;;;;;6143022;23;20014;-85
2024/01/29 03:57:11;;;;;;;8.38;3.85;;;1.50;99.90;;;;;;6167130;23;20010;-86
2024/01/29 03:59:37;;;;;;;7.22;3.58;;;1.50;99.90;;;;;;6167020;23;20477;-85
2024/01/29 04:02:04;;;;;;;6.63;3.47;;;1.50;99.90;;;;;;6142677;23;20050;-86
2024/01/29 04:04:31;;;;;;;7.45;3.55;;;1.50;99.90;;;;;;6142681;23;20097;-86
2024/01/29 04:06:58;;;;;;;9.50;3.88;;;2.70;99.90;;;;;;6142516;23;20457;-86
2024/01/29 04:09:24;;;;;;;7.68;3.22;;;1.50;99.90;;;;;;6166636;23;20021;-85
2024/01/29 04:11:51;;;;;;;7.13;3.30;;;1.50;99.90;;;;;;6142449;23;20469;-86
2024/01/29 04:14:18;;;;;;;6.40;3.40;;;1.60;99.90;;;;;;6142653;23;20010;-86
2024/01/29 04:16:45;;;;;;;6.35;3.70;;;1.60;99.90;;;;;;6142762;23;20006;-86
2024/01/29 04:19:13;;;;;;;7.43;3.58;;;1.60;99.90;;;;;;6142522;23;20018;-86
2024/01/29 04:21:43;;;;;;;9.00;4.05;;;1.60;99.90;;;;;;6166990;23;20010;-86
2024/01/29 04:24:13;;;;;;;8.38;3.72;;;1.60;99.90;;;;;;6142630;23;20394;-86
2024/01/29 04:26:40;;;;;;;7.97;3.80;;;2.60;99.90;;;;;;6166475;23;20073;-86
2024/01/29 04:29:08;;;;;;;9.38;3.88;;;1.70;99.90;;;;;;6142457;23;20070;-85
2024/01/29 04:31:35;;;;;;;7.85;4.03;;;1.80;99.90;;;;;;6142766;23;20010;-86
2024/01/29 04:34:02;;;;;;;8.77;3.58;;;1.90;99.90;;;;;;6142560;23;20021;-86
2024/01/29 04:36:29;;;;;;;6.82;3.60;;;2.60;99.90;;;;;;6142480;23;20005;-86
2024/01/29 04:38:56;;;;;;;6.45;3.78;;;2.00;99.90;;;;;;6167117;23;20014;-86
2024/01/29 04:41:22;;;;;;;8.80;3.63;;;2.10;99.90;;;;;;6142355;23;20006;-86
2024/01/29 04:43:49;;;;;;;8.82;4.10;;;2.20;99.90;;;;;;6166813;23;20014;-86
2024/01/29 04:46:16;;;;;;;8.07;3.60;;;2.30;99.90;;;;;;6142173;23;20009;-86
2024/01/29 04:48:43;;;;;;;9.52;3.80;;;3.50;99.90;;;;;;6142659;23;20006;-86
2024/01/29 04:51:10;;;;;;;9.80;4.05;;;2.40;99.90;;;;;;6142252;23;20106;-86
2024/01/29 04:53:38;;;;;;;6.88;3.92;;;2.40;99.90;;;;;;6166636;23;20018;-86
2024/01/29 04:56:05;;;;;;;10.25;3.80;;;2.40;99.90;;;;;;6142457;23;20010;-86
2024/01/29 04:58:32;;;;;;;10.07;4.25;;;2.50;99.90;;;;;;6142314;23;20483;-86
2024/01/29 05:00:59;;;;;;;9.32;3.75;;;2.50;99.90;;;;;;6142492;23;20010;-86
2024/01/29 05:03:26;;;;;;;6.35;4.00;;;2.50;99.90;;;;;;6142476;23;20018;-86
2024/01/29 05:05:53;;;;;;;7.25;3.95;;;2.50;99.90;;;;;;6166902;23;20013;-85
2024/01/29 05:08:20;;;;;;;9.05;4.18;;;2.50;99.90;;;;;;6142415;23;20349;-86
2024/01/29 05:10:47;;;;;;;6.75;3.80;;;2.40;99.90;;;;;;6142124;23;20010;-86
2024/01/29 05:13:15;;;;;;;6.97;3.85;;;3.30;99.90;;;;;;6142191;23;20014;-86
2024/01/29 05:15:41;;;;;;;6.45;3.65;;;2.40;99.90;;;;;;6166823;23;20607;-86
2024/01/29 05:18:08;;;;;;;7.15;3.75;;;2.30;99.90;;;;;;6142021;23;20010;-86
2024/01/29 05:20:35;;;;;;;7.50;3.35;;;2.20;99.90;;;;;;6141980;23;20017;-86
2024/01/29 05:23:02;;;;;;;6.78;3.72;;;2.20;99.90;;;;;;6142224;23;20080;-86
2024/01/29 05:25:29;;;;;;;8.15;3.70;;;2.10;99.90;;;;;;6166554;23;20081;-86
2024/01/29 05:27:56;;;;;;;8.20;4.07;;;2.10;99.90;;;;;;6141897;23;20018;-86
2024/01/29 05:30:23;;;;;;;6.90;3.65;;;2.10;99.90;;;;;;6142293;23;20013;-86
2024/01/29 05:32:49;;;;;;;6.82;3.70;;;2.60;99.90;;;;;;6141880;23;20018;-85
2024/01/29 05:35:16;;;;;;;8.43;3.80;;;2.00;99.90;;;;;;6142032;23;20013;-86
2024/01/29 05:37:43;;;;;;;8.40;4.32;;;2.00;99.90;;;;;;6142451;23;20014;-85
2024/01/29 05:40:11;;;;;;;7.53;3.90;;;1.90;99.90;;;;;;6144074;23;20464;-86
2024/01/29 05:42:38;;;;;;;8.80;4.10;;;1.90;99.90;;;;;;6143719;23;20014;-86
2024/01/29 05:45:05;;;;;;;7.65;3.97;;;1.90;99.90;;;;;;6144125;23;20496;-86
2024/01/29 05:47:33;;;;;;;7.30;4.10;;;1.90;99.90;;;;;;6168643;23;20060;-86
2024/01/29 05:50:01;;;;;;;8.88;4.32;;;1.90;99.90;;;;;;6168635;23;20018;-86
2024/01/29 05:52:27;;;;;;;7.85;3.90;;;2.00;99.90;;;;;;6168601;23;20093;-86
2024/01/29 05:54:54;;;;;;;10.10;3.92;;;2.00;99.90;;;;;;6144180;23;20064;-86
2024/01/29 05:57:21;;;;;;;6.82;3.95;;;2.10;99.90;;;;;;6168651;23;20010;-86
2024/01/29 05:59:47;;;;;;;7.40;4.20;;;2.10;99.90;;;;;;6143955;23;20018;-85
2024/01/29 06:02:14;;;;;;;9.98;4.10;;;2.10;99.90;;;;;;6144066;23;20092;-86
2024/01/29 06:04:41;;;;;;;7.07;4.00;;;2.20;99.90;;;;;;6143842;23;20028;-86
2024/01/29 06:07:08;;;;;;;9.25;4.50;;;2.20;99.90;;;;;;6144091;23;20096;-86
2024/01/29 06:09:34;;;;;;;9.02;4.07;;;2.20;99.90;;;;;;6143855;23;20056;-86
2024/01/29 06:12:01;;;;;;;6.70;3.72;;;2.20;99.90;;;;;;6143998;23;20101;-85
2024/01/29 06:14:28;;;;;;;7.00;3.88;;;2.20;99.90;;;;;;6168498;23;20126;-86
2024/01/29 06:16:58;;;;;;;9.75;4.10;;;2.20;99.90;;;;;;6143856;23;20037;-86
2024/01/29 06:19:25;;;;;;;8.90;4.57;;;2.20;99.90;;;;;;6143495;23;20021;-86
2024/01/29 06:21:51;;;;;;;9.30;3.80;;;2.20;99.90;;;;;;6143677;23;20022;-86
2024/01/29 06:24:18;;;;;;;8.85;4.88;;;2.20;99.90;;;;;;6143987;23;20025;-86
2024/01/29 06:26:45;;;;;;;11.45;4.80;;;2.20;99.90;;;;;;6143851;23;20080;-86
2024/01/29 06:29:11;;;;;;;12.25;4.75;;;3.10;99.90;;;;;;6143694;23;20022;-85
2024/01/29 06:31:41;;;;;;;11.35;4.80;;;3.10;99.90;;;;;;6143726;23;20041;-86
2024/01/29 06:34:08;;;;;;;6.53;3.78;;;2.70;99.90;;;;;;6168026;23;20006;-86
2024/01/29 06:36:35;;;;;;;10.32;4.20;;;2.40;99.90;;;;;;6168084;23;20402;-86
2024/01/29 06:39:01;;;;;;;9.43;3.60;;;2.40;99.90;;;;;;6143712;23;20349;-85
2024/01/29 06:41:28;;;;;;;7.57;4.20;;;2.50;99.90;;;;;;6143640;23;20014;-86
2024/01/29 06:43:55;;;;;;;9.48;4.15;;;3.30;99.90;;;;;;6143746;23;20018;-86
2024/01/29 06:46:22;;;;;;;8.05;4.22;;;2.60;99.90;;;;;;6143534;23;20022;-86
2024/01/29 06:48:48;;;;;;;8.57;4.00;;;2.60;99.90;;;;;;6143061;23;20348;-86
2024/01/29 06:51:16;;;;;;;7.55;4.20;;;2.70;99.90;;;;;;6143192;23;20010;-86
2024/01/29 06:53:43;;;;;;;9.77;4.28;;;2.70;99.90;;;;;;6143444;23;20018;-86
2024/01/29 06:56:09;;;;;;;6.00;3.97;;;2.70;99.90;;;;;;6143219;23;20010;-86
2024/01/29 06:58:36;;;;;;;9.02;4.20;;;3.80;99.90;;;;;;6167653;23;20064;-86
2024/01/29 07:01:06;;;;;;;10.85;4.60;;;3.90;99.90;;;;;;6142901;23;20014;-87
2024/01/29 07:03:33;;;;;;;7.75;4.35;;;2.70;99.90;;;;;;6142994;23;20013;-86
2024/01/29 07:06:00;;;;;;;10.02;4.00;;;3.30;99.90;;;;;;6142974;23;20025;-86
2024/01/29 07:08:26;;;;;;;7.40;4.10;;;4.00;99.90;;;;;;6142908;23;20451;-86
2024/01/29 07:10:54;;;;;;;10.32;4.10;;;2.80;99.90;;;;;;6143266;23;20061;-85
2024/01/29 07:13:20;;;;;;;8.85;4.47;;;2.80;99.90;;;;;;6142833;23;20065;-86
2024/01/29 07:15:47;;;;;;;6.68;4.13;;;3.80;99.90;;;;;;6142945;23;20006;-85
2024/01/29 07:18:13;;;;;;;8.60;4.57;;;2.80;99.90;;;;;;6142653;23;20021;-86
2024/01/29 07:20:42;;;;;;;7.50;4.43;;;2.80;99.90;;;;;;6142257;23;20010;-86
2024/01/29 07:23:09;;;;;;;8.95;4.30;;;2.80;99.90;;;;;;6142644;23;20021;-86
2024/01/29 07:25:39;;;;;;;8.50;4.63;;;2.80;99.90;;;;;;6142319;23;20097;-86
2024/01/29 07:28:07;;;;;;;11.90;4.82;;;2.80;99.90;;;;;;6142235;23;20093;-86
2024/01/29 07:30:34;;;;;;;7.72;4.25;;;3.80;99.90;;;;;;6142747;23;20097;-86
2024/01/29 07:33:02;;;;;;;8.05;4.50;;;2.80;99.90;;;;;;6142720;23;20137;-86
2024/01/29 07:35:29;;;;;;;8.57;4.70;;;2.70;99.90;;;;;;6142774;23;20101;-86
2024/01/29 07:37:55;;;;;;;10.70;4.60;;;2.70;99.90;;;;;;6142905;23;20445;-86
2024/01/29 07:40:22;;;;;;;8.82;4.47;;;2.70;99.90;;;;;;6142685;23;20013;-86
2024/01/29 07:42:49;;;;;;;9.52;4.80;;;2.70;99.90;;;;;;6142781;23;20014;-85
2024/01/29 07:45:16;;;;;;;8.18;4.80;;;2.70;99.90;;;;;;6142560;23;20361;-85
2024/01/29 07:47:44;;;;;;;8.18;4.72;;;3.10;99.90;;;;;;6142496;23;20018;-85
2024/01/29 07:50:11;;;;;;;7.90;4.20;;;2.70;99.90;;;;;;6142373;23;20014;-85
2024/01/29 07:52:37;;;;;;;8.38;4.97;;;2.80;99.90;;;;;;6142625;23;20025;-85
2024/01/29 07:55:04;;;;;;;7.53;4.40;;;3.80;99.90;;;;;;6142051;23;20010;-85
2024/01/29 07:57:30;;;;;;;9.52;4.88;;;2.80;99.90;;;;;;6142171;23;20014;-85
2024/01/29 07:59:57;;;;;;;9.75;4.85;;;2.80;99.90;;;;;;6165677;23;20460;-85
2024/01/29 08:02:24;;;;;;;9.82;4.97;;;2.80;99.90;;;;;;6141198;23;20025;-86
2024/01/29 08:04:50;;;;;;;12.07;4.75;;;2.90;99.90;;;;;;6142245;23;20017;-86
2024/01/29 08:07:17;;;;;;;9.40;4.68;;;2.90;99.90;;;;;;6142121;23;20342;-86
2024/01/29 08:09:45;;;;;;;7.95;4.60;;;2.90;99.90;;;;;;6142438;23;20104;-86
2024/01/29 08:12:11;;;;;;;10.18;4.88;;;2.90;99.90;;;;;;6142577;23;20041;-86
2024/01/29 08:14:38;;;;;;;9.18;5.03;;;3.00;99.90;;;;;;6142538;23;20041;-86
2024/01/29 08:17:05;;;;;;;10.00;4.78;;;4.20;99.90;;;;;;6166920;23;20020;-86
2024/01/29 08:19:32;;;;;;;10.50;4.85;;;3.10;99.90;;;;;;6118079;23;20049;-86
2024/01/29 08:21:59;;;;;;;12.23;5.40;;;3.20;99.90;;;;;;6166748;23;20409;-86
2024/01/29 08:24:25;;;;;;;9.88;5.10;;;3.20;99.90;;;;;;6142375;23;20272;-86
2024/01/29 08:26:52;;;;;;;8.60;4.80;;;3.80;99.90;;;;;;6142858;23;20021;-87
2024/01/29 08:29:18;;;;;;;9.30;5.38;;;3.50;99.90;;;;;;6167245;23;20014;-86
2024/01/29 08:31:45;;;;;;;7.10;4.78;;;3.40;99.90;;;;;;6171859;23;20449;-86
2024/01/29 08:34:12;;;;;;;9.18;4.90;;;3.40;99.90;;;;;;6145795;23;20022;-86
2024/01/29 08:36:39;;;;;;;9.07;5.05;;;4.70;99.90;;;;;;6142849;23;20010;-86
2024/01/29 08:39:05;;;;;;;9.82;4.90;;;3.60;99.90;;;;;;6142406;23;20064;-87
2024/01/29 08:41:32;;;;;;;9.90;5.05;;;3.60;99.90;;;;;;6142546;23;20024;-86
2024/01/29 08:43:59;;;;;;;7.65;4.70;;;3.60;99.90;;;;;;6142413;23;20708;-86
2024/01/29 08:46:25;;;;;;;13.13;5.00;;;4.80;99.90;;;;;;6142397;23;20010;-86
2024/01/29 08:48:52;;;;;;;8.35;4.53;;;3.80;99.90;;;;;;6166635;23;20045;-86
2024/01/29 08:51:18;;;;;;;9.80;5.18;;;3.90;99.90;;;;;;6142420;23;20097;-87
2024/01/29 08:53:45;;;;;;;8.25;4.25;;;3.90;99.90;;;;;;6142579;23;20010;-86
2024/01/29 08:56:12;;;;;;;11.05;5.43;;;4.00;99.90;;;;;;6166834;23;20014;-87
2024/01/29 08:58:39;;;;;;;11.60;6.13;;;4.10;99.90;;;;;;6142492;23;20093;-86
2024/01/29 09:01:06;;;;;;;10.15;5.18;;;4.20;99.90;;;;;;6142713;23;20049;-86
2024/01/29 09:03:32;;;;;;;8.88;5.30;;;4.90;99.90;;;;;;6142171;23;20022;-86
2024/01/29 09:05:59;;;;;;;12.73;5.55;;;5.40;99.90;;;;;;6141245;23;20476;-87
2024/01/29 09:08:27;;;;;;;11.82;4.78;;;4.40;99.90;;;;;;6142284;23;20041;-86
2024/01/29 09:10:54;;;;;;;9.13;5.35;;;4.50;99.90;;;;;;6142166;23;20453;-87
2024/01/29 09:13:21;;;;;;;10.75;6.30;;;4.50;99.90;;;;;;6142080;23;20050;-86
2024/01/29 09:15:48;;;;;;;10.38;5.40;;;4.60;99.90;;;;;;6142471;23;20013;-86
2024/01/29 09:18:14;;;;;;;13.23;7.10;;;4.70;99.90;;;;;;6142093;23;20077;-86
2024/01/29 09:20:41;;;;;;;11.20;7.72;;;4.90;99.90;;;;;;6142537;23;20056;-86
2024/01/29 09:23:08;;;;;;;8.30;5.63;;;4.80;99.90;;;;;;6142366;23;20072;-86
2024/01/29 09:25:34;;;;;;;12.65;8.63;;;4.90;99.90;;;;;;6142139;23;20014;-86
2024/01/29 09:28:01;;;;;;;10.45;6.10;;;5.90;99.90;;;;;;6142065;23;20017;-86
2024/01/29 09:30:28;;;;;;;11.05;6.30;;;5.00;99.90;;;;;;6142146;23;20018;-86
2024/01/29 09:32:56;;;;;;;10.13;6.20;;;5.10;99.90;;;;;;6142253;23;20018;-86
2024/01/29 09:35:22;;;;;;;10.90;5.57;;;5.30;99.90;;;;;;6141894;23;20073;-86
2024/01/29 09:37:49;;;;;;;10.57;5.40;;;6.70;99.90;;;;;;6142163;23;20017;-86
2024/01/29 09:40:16;;;;;;;9.55;5.65;;;5.30;99.90;;;;;;6142486;23;20018;-87
2024/01/29 09:42:48;;;;;;;9.23;5.15;;;5.40;99.90;;;;;;6142445;23;20025;-86
2024/01/29 09:45:24;;;;;;;8.40;5.10;;;5.50;99.90;;;;;;6142041;23;20025;-86
2024/01/29 09:47:55;;;;;;;8.25;5.32;;;6.30;99.90;;;;;;6141842;23;20056;-87
2024/01/29 09:50:24;;;;;;;8.77;5.20;;;5.60;99.90;;;;;;6142264;23;20022;-86
2024/01/29 09:52:53;;;;;;;9.43;5.32;;;6.00;99.90;;;;;;6142118;23;20010;-87
2024/01/29 09:55:19;;;;;;;10.10;5.63;;;6.10;99.90;;;;;;6142173;23;20025;-86
2024/01/29 09:57:46;;;;;;;8.00;5.03;;;6.30;99.90;;;;;;6142268;23;20006;-86
2024/01/29 10:00:13;;;;;;;9.50;5.63;;;5.80;99.90;;;;;;6142367;23;20010;-86
2024/01/29 10:02:43;;;;;;;9.73;5.28;;;5.80;99.90;;;;;;6142023;23;20050;-86
2024/01/29 10:05:11;;;;;;;11.75;5.43;;;5.90;99.90;;;;;;6166660;23;20014;-87
2024/01/29 10:07:40;;;;;;;8.68;5.38;;;6.40;99.90;;;;;;6166298;23;20049;-86
2024/01/29 10:10:10;;;;;;;8.57;5.53;;;6.00;99.90;;;;;;6142286;23;20018;-86
2024/01/29 10:12:37;;;;;;;10.38;5.22;;;6.10;99.90;;;;;;6142128;23;20018;-87
2024/01/29 10:15:04;;;;;;;8.57;5.20;;;7.30;99.90;;;;;;6142539;23;20021;-86
2024/01/29 10:17:32;;;;;;;10.30;5.78;;;6.20;99.90;;;;;;6143476;23;20341;-86
2024/01/29 10:19:59;;;;;;;10.07;5.65;;;6.30;99.90;;;;;;6147047;23;20056;-86
2024/01/29 10:22:26;;;;;;;12.18;5.82;;;6.80;99.90;;;;;;6171247;23;20010;-86
2024/01/29 10:25:04;;;;;;;8.77;5.65;;;6.60;99.90;;;;;;6147270;23;20089;-86
2024/01/29 10:27:31;;;;;;;10.07;6.03;;;6.40;99.90;;;;;;6148637;23;20019;-86
2024/01/29 10:29:58;;;;;;;10.90;6.20;;;6.50;99.90;;;;;;6172935;23;20013;-87
2024/01/29 10:32:24;;;;;;;13.27;7.05;;;6.80;99.90;;;;;;6149009;23;20340;-85
2024/01/29 10:34:51;;;;;;;9.88;5.93;;;6.50;99.90;;;;;;6148678;23;20014;-87
2024/01/29 10:37:20;;;;;;;14.45;7.00;;;6.60;99.90;;;;;;6149091;23;20651;-87
2024/01/29 10:39:48;;;;;;;16.77;7.88;;;6.70;99.90;;;;;;6148690;23;20020;-86
2024/01/29 10:42:17;;;;;;;11.27;6.60;;;6.90;99.90;;;;;;6148376;23;20021;-86
2024/01/29 10:44:45;;;;;;;11.20;6.40;;;7.20;99.90;;;;;;6148305;23;20460;-86
2024/01/29 10:47:20;;;;;;;12.07;7.30;;;6.70;99.90;;;;;;6148246;23;20352;-86
2024/01/29 10:49:47;;;;;;;10.73;6.50;;;6.80;99.90;;;;;;6148724;23;20017;-86
2024/01/29 10:52:15;;;;;;;13.15;8.43;;;6.80;99.90;;;;;;6172644;23;20020;-86
2024/01/29 10:54:42;;;;;;;15.18;8.43;;;6.80;99.90;;;;;;6147982;23;20013;-87
2024/01/29 10:57:10;;;;;;;11.50;6.45;;;7.20;99.90;;;;;;6148465;23;20013;-87
2024/01/29 10:59:41;;;;;;;9.73;6.03;;;6.80;99.90;;;;;;6148265;23;20418;-86
2024/01/29 11:02:12;;;;;;;12.88;6.85;;;7.00;99.90;;;;;;6148605;23;20028;-87
2024/01/29 11:04:38;;;;;;;10.38;6.60;;;7.10;99.90;;;;;;6148636;23;20019;-86
2024/01/29 11:07:11;;;;;;;13.50;6.55;;;7.00;99.90;;;;;;6148393;23;20088;-87
2024/01/29 11:09:44;;;;;;;11.23;7.10;;;7.80;99.90;;;;;;6148379;23;20080;-86
2024/01/29 11:12:13;;;;;;;12.48;7.03;;;7.30;99.90;;;;;;6172732;23;20045;-87
2024/01/29 11:14:47;;;;;;;9.35;6.05;;;7.50;99.90;;;;;;6148190;23;20170;-86
2024/01/29 11:17:15;;;;;;;11.55;6.50;;;7.10;99.90;;;;;;6148021;23;20060;-86
2024/01/29 11:19:42;;;;;;;11.38;6.38;;;7.20;99.90;;;;;;6167007;23;20323;-86
2024/01/29 11:22:09;;;;;;;10.82;6.65;;;7.20;99.90;;;;;;6142972;23;20022;-86
2024/01/29 11:24:36;;;;;;;11.05;6.57;;;7.70;99.90;;;;;;6142836;23;20017;-85
2024/01/29 11:27:08;;;;;;;13.30;6.63;;;7.20;99.90;;;;;;6142915;23;20021;-86
2024/01/29 11:29:39;;;;;;;11.77;6.75;;;7.30;99.90;;;;;;6142667;23;20018;-86
2024/01/29 11:32:06;;;;;;;11.15;6.80;;;7.40;99.90;;;;;;6143074;23;20018;-86
2024/01/29 11:34:33;;;;;;;13.68;7.15;;;7.40;99.90;;;;;;6142776;23;20069;-86
2024/01/29 11:37:00;;;;;;;13.15;6.75;;;7.40;99.90;;;;;;6142802;23;20006;-86
2024/01/29 11:39:27;;;;;;;10.73;7.03;;;7.50;99.90;;;;;;6141668;23;20097;-86
2024/01/29 11:41:54;;;;;;;13.18;7.85;;;7.80;99.90;;;;;;6167200;23;20052;-86
2024/01/29 11:48:10;;;;;;;12.82;6.95;;;7.60;99.90;;;;;;6167387;23;20013;-90
2024/01/29 11:50:44;;;;;;;15.25;7.32;;;7.60;99.90;;;;;;6144026;23;20014;-93
2024/01/29 11:53:12;;;;;;;12.38;7.13;;;7.70;99.90;;;;;;6143928;23;20064;-92
2024/01/29 11:55:43;;;;;;;12.48;7.05;;;7.70;99.90;;;;;;6143845;23;20089;-92
2024/01/29 11:58:18;;;;;;;20.33;7.55;;;7.70;99.90;;;;;;6144256;23;20032;-92
2024/01/29 12:00:46;;;;;;;10.85;6.90;;;7.80;99.90;;;;;;6143392;23;20041;-91
2024/01/29 12:03:18;;;;;;;13.50;7.88;;;7.80;99.90;;;;;;6167891;23;20523;-92
2024/01/29 12:05:45;;;;;;;12.30;7.35;;;8.10;99.90;;;;;;6143250;23;20480;-91
2024/01/29 12:08:16;;;;;;;13.82;7.35;;;8.40;99.90;;;;;;6143703;23;20026;-91
2024/01/29 12:10:44;;;;;;;11.02;7.30;;;9.00;99.90;;;;;;6143648;23;20029;-91
2024/01/29 12:13:19;;;;;;;12.40;7.47;;;8.30;99.90;;;;;;6143323;23;20062;-90
2024/01/29 12:15:47;;;;;;;13.93;7.70;;;8.30;99.90;;;;;;6142575;23;20010;-86
2024/01/29 12:18:23;;;;;;;17.13;7.75;;;8.50;99.90;;;;;;6142333;23;20041;-86
2024/01/29 12:20:50;;;;;;;12.45;7.60;;;8.30;99.90;;;;;;6142587;23;20018;-86
2024/01/29 12:23:20;;;;;;;15.18;8.00;;;8.30;99.90;;;;;;6142742;23;20640;-86
2024/01/29 12:25:55;;;;;;;13.15;7.38;;;8.90;99.90;;;;;;6142190;23;20045;-84
2024/01/29 12:28:25;;;;;;;13.48;7.38;;;9.10;99.90;;;;;;6141990;23;20014;-85
2024/01/29 12:31:01;;;;;;;15.65;7.95;;;8.30;99.90;;;;;;6142299;23;20024;-86
2024/01/29 12:33:30;;;;;;;;;;;8.70;99.90;;;;;;6142214;23;20017;-86
2024/01/29 12:36:09;;;;;;;14.20;8.40;;;8.30;99.90;;;;;;6141865;23;19937;-86
2024/01/29 12:38:35;;;;;;;14.65;8.00;;;8.30;99.90;;;;;;6141645;23;20045;-86
2024/01/29 12:41:02;;;;;;;13.63;8.02;;;8.90;99.90;;;;;;6141901;23;20041;-85
2024/01/29 12:43:29;;;;;;;12.68;7.72;;;8.40;99.90;;;;;;6141983;23;20353;-86
2024/01/29 12:46:09;;;;;;;14.00;8.07;;;8.40;99.90;;;;;;6141963;23;20345;-87
2024/01/29 12:48:35;;;;;;;15.65;8.45;;;8.50;99.90;;;;;;6141961;23;20022;-87
2024/01/29 12:51:02;;;;;;;17.25;8.35;;;8.50;99.90;;;;;;6166671;23;20018;-86
2024/01/29 12:53:29;;;;;;;15.07;7.88;;;8.50;99.90;;;;;;6142338;23;20018;-86
2024/01/29 12:55:55;;;;;;;16.15;8.73;;;8.90;99.90;;;;;;6141829;23;20046;-85
2024/01/29 12:58:23;;;;;;;19.75;8.85;;;8.50;99.90;;;;;;6141930;23;20024;-85
2024/01/29 13:00:51;;;;;;;18.63;9.50;;;9.00;99.90;;;;;;6141868;23;20041;-85